sensor_id;sensor_type;location;lat;lon;timestamp;pressure;altitude;pressure_sealevel;temperature;humidity
21234;BME280;10774;42.178;26.578;2023-01-25T00:00:13;101571.13;;;2.30;96.49
21234;BME280;10774;42.178;26.578;2023-01-25T00:02:39;101576.53;;;2.00;96.90
21234;BME280;10774;42.178;26.578;2023-01-25T00:05:04;101584.34;;;2.44;97.21
21234;BME280;10774;42.178;26.578;2023-01-25T00:07:30;101573.75;;;2.40;95.40
21234;BME280;10774;42.178;26.578;2023-01-25T00:09:55;101556.19;;;2.14;96.72
21234;BME280;10774;42.178;26.578;2023-01-25T00:12:21;101578.91;;;2.75;95.89
21234;BME280;10774;42.178;26.578;2023-01-25T00:14:46;101569.28;;;2.48;95.30
21234;BME280;10774;42.178;26.578;2023-01-25T00:17:11;101576.19;;;2.79;93.65
21234;BME280;10774;42.178;26.578;2023-01-25T00:19:37;101587.56;;;3.00;91.45
21234;BME280;10774;42.178;26.578;2023-01-25T00:22:02;101577.78;;;3.08;91.22
21234;BME280;10774;42.178;26.578;2023-01-25T00:24:28;101582.13;;;3.18;90.50
21234;BME280;10774;42.178;26.578;2023-01-25T00:26:53;101575.22;;;2.96;89.65
21234;BME280;10774;42.178;26.578;2023-01-25T00:29:19;101575.22;;;2.96;89.91
21234;BME280;10774;42.178;26.578;2023-01-25T00:39:45;101552.72;;;1.94;94.14
21234;BME280;10774;42.178;26.578;2023-01-25T00:42:11;101570.34;;;2.07;94.26
21234;BME280;10774;42.178;26.578;2023-01-25T00:44:37;101568.53;;;2.15;94.20
21234;BME280;10774;42.178;26.578;2023-01-25T00:47:03;101555.25;;;2.33;92.50
21234;BME280;10774;42.178;26.578;2023-01-25T00:49:32;101556.22;;;2.08;92.26
21234;BME280;10774;42.178;26.578;2023-01-25T00:51:58;101559.72;;;2.19;92.64
21234;BME280;10774;42.178;26.578;2023-01-25T00:54:24;101542.19;;;1.72;93.46
21234;BME280;10774;42.178;26.578;2023-01-25T00:56:49;101551.84;;;1.98;93.34
21234;BME280;10774;42.178;26.578;2023-01-25T00:59:21;101546.47;;;2.22;92.88
21234;BME280;10774;42.178;26.578;2023-01-25T01:01:47;101542.16;;;1.86;92.62
21234;BME280;10774;42.178;26.578;2023-01-25T01:04:12;101542.09;;;2.03;91.83
21234;BME280;10774;42.178;26.578;2023-01-25T01:06:38;101549.09;;;2.25;92.77
21234;BME280;10774;42.178;26.578;2023-01-25T01:09:05;101549.16;;;2.07;91.75
21234;BME280;10774;42.178;26.578;2023-01-25T01:11:31;101538.50;;;2.24;91.53
21234;BME280;10774;42.178;26.578;2023-01-25T01:13:58;101549.09;;;2.19;91.20
21234;BME280;10774;42.178;26.578;2023-01-25T01:16:24;101546.53;;;1.98;91.06
21234;BME280;10774;42.178;26.578;2023-01-25T01:18:49;101543.75;;;2.38;92.11
21234;BME280;10774;42.178;26.578;2023-01-25T01:21:15;101534.81;;;2.51;89.70
21234;BME280;10774;42.178;26.578;2023-01-25T01:23:41;101527.00;;;2.28;88.81
21234;BME280;10774;42.178;26.578;2023-01-25T01:26:08;101541.91;;;2.46;88.27
21234;BME280;10774;42.178;26.578;2023-01-25T01:28:35;101526.06;;;2.36;88.45
21234;BME280;10774;42.178;26.578;2023-01-25T01:31:06;101526.09;;;2.33;87.94
21234;BME280;10774;42.178;26.578;2023-01-25T01:33:32;101532.31;;;2.20;89.05
21234;BME280;10774;42.178;26.578;2023-01-25T01:35:58;101530.50;;;2.33;89.47
21234;BME280;10774;42.178;26.578;2023-01-25T01:38:23;101515.53;;;2.21;88.85
21234;BME280;10774;42.178;26.578;2023-01-25T01:40:49;101530.56;;;2.16;89.37
21234;BME280;10774;42.178;26.578;2023-01-25T01:43:21;101519.97;;;2.19;88.47
21234;BME280;10774;42.178;26.578;2023-01-25T01:48:37;101540.34;;;2.02;88.95
21234;BME280;10774;42.178;26.578;2023-01-25T01:51:39;101520.03;;;2.04;89.01
21234;BME280;10774;42.178;26.578;2023-01-25T01:54:16;101542.97;;;2.09;88.52
21234;BME280;10774;42.178;26.578;2023-01-25T01:56:59;101540.19;;;2.39;88.57
21234;BME280;10774;42.178;26.578;2023-01-25T01:59:30;101552.69;;;2.09;88.82
21234;BME280;10774;42.178;26.578;2023-01-25T02:01:58;101549.16;;;1.99;88.10
21234;BME280;10774;42.178;26.578;2023-01-25T02:04:24;101530.63;;;2.02;87.22
21234;BME280;10774;42.178;26.578;2023-01-25T02:07:07;101535.00;;;2.19;87.95
21234;BME280;10774;42.178;26.578;2023-01-25T02:09:35;101545.63;;;2.08;85.31
21234;BME280;10774;42.178;26.578;2023-01-25T02:12:02;101551.72;;;2.28;86.15
21234;BME280;10774;42.178;26.578;2023-01-25T02:14:28;101537.66;;;2.13;84.15
21234;BME280;10774;42.178;26.578;2023-01-25T02:16:55;101546.41;;;2.38;84.38
21234;BME280;10774;42.178;26.578;2023-01-25T02:19:40;101540.22;;;2.32;83.37
21234;BME280;10774;42.178;26.578;2023-01-25T02:22:10;101538.66;;;1.67;85.63
21234;BME280;10774;42.178;26.578;2023-01-25T02:24:43;101543.91;;;1.92;87.06
21234;BME280;10774;42.178;26.578;2023-01-25T02:27:11;101534.09;;;2.18;85.75
21234;BME280;10774;42.178;26.578;2023-01-25T02:29:37;101535.03;;;2.08;83.72
21234;BME280;10774;42.178;26.578;2023-01-25T02:32:05;101545.56;;;2.20;84.70
21234;BME280;10774;42.178;26.578;2023-01-25T02:34:31;101531.34;;;2.36;84.18
21234;BME280;10774;42.178;26.578;2023-01-25T02:36:56;101545.34;;;2.66;83.51
21234;BME280;10774;42.178;26.578;2023-01-25T02:39:22;101531.31;;;2.46;82.31
21234;BME280;10774;42.178;26.578;2023-01-25T02:41:51;101545.53;;;2.26;82.51
21234;BME280;10774;42.178;26.578;2023-01-25T02:44:34;101541.16;;;2.27;83.38
21234;BME280;10774;42.178;26.578;2023-01-25T02:47:00;101533.91;;;2.56;83.04
21234;BME280;10774;42.178;26.578;2023-01-25T02:49:26;101532.09;;;2.66;83.01
21234;BME280;10774;42.178;26.578;2023-01-25T02:51:53;101543.72;;;2.41;81.81
21234;BME280;10774;42.178;26.578;2023-01-25T02:54:22;101540.00;;;2.75;82.81
21234;BME280;10774;42.178;26.578;2023-01-25T02:56:47;101540.09;;;2.60;82.17
21234;BME280;10774;42.178;26.578;2023-01-25T02:59:13;101543.56;;;2.68;81.86
21234;BME280;10774;42.178;26.578;2023-01-25T03:01:40;101518.75;;;2.78;82.75
21234;BME280;10774;42.178;26.578;2023-01-25T03:04:06;101531.31;;;2.46;82.08
21234;BME280;10774;42.178;26.578;2023-01-25T03:06:32;101512.63;;;2.70;83.40
21234;BME280;10774;42.178;26.578;2023-01-25T03:08:58;101536.34;;;2.92;82.33
21234;BME280;10774;42.178;26.578;2023-01-25T03:11:24;101514.34;;;2.77;82.30
21234;BME280;10774;42.178;26.578;2023-01-25T03:13:50;101529.19;;;3.00;82.58
21234;BME280;10774;42.178;26.578;2023-01-25T03:16:15;101525.69;;;2.95;82.28
21234;BME280;10774;42.178;26.578;2023-01-25T03:18:41;101511.63;;;2.86;82.38
21234;BME280;10774;42.178;26.578;2023-01-25T03:21:13;101517.00;;;2.77;83.56
21234;BME280;10774;42.178;26.578;2023-01-25T03:23:39;101498.75;;;2.28;83.65
21234;BME280;10774;42.178;26.578;2023-01-25T03:26:18;101517.09;;;2.62;84.59
21234;BME280;10774;42.178;26.578;2023-01-25T03:28:44;101511.78;;;2.62;83.68
21234;BME280;10774;42.178;26.578;2023-01-25T03:31:12;101536.41;;;2.82;84.74
21234;BME280;10774;42.178;26.578;2023-01-25T03:33:38;101537.66;;;2.13;86.34
21234;BME280;10774;42.178;26.578;2023-01-25T03:36:04;101536.84;;;1.91;88.27
21234;BME280;10774;42.178;26.578;2023-01-25T03:38:30;101523.59;;;1.92;89.24
21234;BME280;10774;42.178;26.578;2023-01-25T03:40:56;101517.47;;;1.76;89.74
21234;BME280;10774;42.178;26.578;2023-01-25T03:43:22;101512.09;;;2.04;89.83
21234;BME280;10774;42.178;26.578;2023-01-25T03:45:52;101534.88;;;2.42;88.53
21234;BME280;10774;42.178;26.578;2023-01-25T03:48:18;101530.53;;;2.24;87.74
21234;BME280;10774;42.178;26.578;2023-01-25T03:50:48;101529.59;;;2.39;87.80
21234;BME280;10774;42.178;26.578;2023-01-25T03:53:23;101522.72;;;1.92;88.25
21234;BME280;10774;42.178;26.578;2023-01-25T03:56:05;101511.16;;;2.14;87.85
21234;BME280;10774;42.178;26.578;2023-01-25T03:58:36;101528.84;;;2.09;86.47
21234;BME280;10774;42.178;26.578;2023-01-25T04:01:04;101488.41;;;1.47;87.90
21234;BME280;10774;42.178;26.578;2023-01-25T04:03:30;101522.81;;;1.64;88.91
21234;BME280;10774;42.178;26.578;2023-01-25T04:05:56;101519.31;;;1.44;88.63
21234;BME280;10774;42.178;26.578;2023-01-25T04:08:22;101515.75;;;1.42;88.86
21234;BME280;10774;42.178;26.578;2023-01-25T04:10:53;101499.00;;;1.50;88.23
21234;BME280;10774;42.178;26.578;2023-01-25T04:13:20;101501.66;;;1.55;87.63
21234;BME280;10774;42.178;26.578;2023-01-25T04:15:46;101516.59;;;1.76;86.31
21234;BME280;10774;42.178;26.578;2023-01-25T04:18:12;101497.25;;;1.51;85.67
21234;BME280;10774;42.178;26.578;2023-01-25T04:20:38;101524.56;;;1.62;86.07
21234;BME280;10774;42.178;26.578;2023-01-25T04:23:03;101505.16;;;1.57;85.56
21234;BME280;10774;42.178;26.578;2023-01-25T04:25:32;101518.41;;;1.36;84.98
21234;BME280;10774;42.178;26.578;2023-01-25T04:27:58;101521.94;;;1.45;84.03
21234;BME280;10774;42.178;26.578;2023-01-25T04:30:23;101531.69;;;1.22;84.67
21234;BME280;10774;42.178;26.578;2023-01-25T04:32:49;101489.34;;;1.39;83.58
21234;BME280;10774;42.178;26.578;2023-01-25T04:35:14;101513.06;;;1.74;83.47
21234;BME280;10774;42.178;26.578;2023-01-25T04:37:40;101505.16;;;1.69;82.09
21234;BME280;10774;42.178;26.578;2023-01-25T04:40:07;101513.94;;;1.77;81.92
21234;BME280;10774;42.178;26.578;2023-01-25T04:42:33;101538.72;;;1.24;82.39
21234;BME280;10774;42.178;26.578;2023-01-25T04:44:58;101534.28;;;1.46;82.17
21234;BME280;10774;42.178;26.578;2023-01-25T04:47:24;101535.13;;;1.73;82.02
21234;BME280;10774;42.178;26.578;2023-01-25T04:49:49;101527.19;;;1.71;81.37
21234;BME280;10774;42.178;26.578;2023-01-25T04:52:14;101536.84;;;1.88;81.04
21234;BME280;10774;42.178;26.578;2023-01-25T04:54:40;101543.91;;;1.93;80.76
21234;BME280;10774;42.178;26.578;2023-01-25T04:57:05;101521.81;;;1.94;80.77
21234;BME280;10774;42.178;26.578;2023-01-25T04:59:31;101538.50;;;2.16;79.63
21234;BME280;10774;42.178;26.578;2023-01-25T05:01:56;101523.56;;;2.06;79.14
21234;BME280;10774;42.178;26.578;2023-01-25T05:04:22;101516.50;;;2.03;79.01
21234;BME280;10774;42.178;26.578;2023-01-25T05:06:47;101522.66;;;2.10;79.08
21234;BME280;10774;42.178;26.578;2023-01-25T05:09:12;101530.56;;;2.19;78.84
21234;BME280;10774;42.178;26.578;2023-01-25T05:11:39;101528.81;;;2.18;78.80
21234;BME280;10774;42.178;26.578;2023-01-25T05:14:04;101527.91;;;2.21;79.71
21234;BME280;10774;42.178;26.578;2023-01-25T05:16:30;101519.94;;;2.27;79.47
21234;BME280;10774;42.178;26.578;2023-01-25T05:18:55;101527.09;;;2.08;79.36
21234;BME280;10774;42.178;26.578;2023-01-25T05:21:20;101510.34;;;1.94;80.36
21234;BME280;10774;42.178;26.578;2023-01-25T05:24:05;101520.09;;;1.84;79.99
21234;BME280;10774;42.178;26.578;2023-01-25T05:26:30;101524.47;;;1.90;81.20
21234;BME280;10774;42.178;26.578;2023-01-25T05:29:14;101521.88;;;1.82;80.30
21234;BME280;10774;42.178;26.578;2023-01-25T05:31:39;101531.63;;;1.66;79.43
21234;BME280;10774;42.178;26.578;2023-01-25T05:34:05;101540.44;;;1.62;81.26
21234;BME280;10774;42.178;26.578;2023-01-25T05:36:30;101528.13;;;1.49;80.42
21234;BME280;10774;42.178;26.578;2023-01-25T05:38:56;101531.59;;;1.72;81.57
21234;BME280;10774;42.178;26.578;2023-01-25T05:41:21;101533.41;;;1.52;80.96
21234;BME280;10774;42.178;26.578;2023-01-25T05:43:47;101534.28;;;1.51;81.13
21234;BME280;10774;42.178;26.578;2023-01-25T05:46:13;101550.06;;;1.89;81.77
21234;BME280;10774;42.178;26.578;2023-01-25T05:48:38;101535.97;;;1.96;80.90
21234;BME280;10774;42.178;26.578;2023-01-25T05:51:04;101559.75;;;2.04;79.69
21234;BME280;10774;42.178;26.578;2023-01-25T05:53:29;101539.47;;;2.03;80.25
21234;BME280;10774;42.178;26.578;2023-01-25T05:55:55;101558.81;;;2.16;79.27
21234;BME280;10774;42.178;26.578;2023-01-25T05:58:20;101562.28;;;2.34;79.15
21234;BME280;10774;42.178;26.578;2023-01-25T06:00:46;101550.78;;;2.45;78.35
21234;BME280;10774;42.178;26.578;2023-01-25T06:03:11;101548.97;;;2.47;78.19
21234;BME280;10774;42.178;26.578;2023-01-25T06:05:36;101553.34;;;2.57;77.48
21234;BME280;10774;42.178;26.578;2023-01-25T06:08:02;101552.41;;;2.67;77.27
21234;BME280;10774;42.178;26.578;2023-01-25T06:10:27;101537.41;;;2.63;78.01
21234;BME280;10774;42.178;26.578;2023-01-25T06:12:57;101570.03;;;2.80;77.49
21234;BME280;10774;42.178;26.578;2023-01-25T06:15:23;101576.22;;;2.73;77.84
21234;BME280;10774;42.178;26.578;2023-01-25T06:17:48;101566.44;;;2.84;76.95
21234;BME280;10774;42.178;26.578;2023-01-25T06:20:14;101566.69;;;2.35;77.96
21234;BME280;10774;42.178;26.578;2023-01-25T06:22:39;101554.34;;;2.34;78.74
21234;BME280;10774;42.178;26.578;2023-01-25T06:25:05;101571.00;;;2.64;77.56
21234;BME280;10774;42.178;26.578;2023-01-25T06:27:31;101556.09;;;2.39;76.94
21234;BME280;10774;42.178;26.578;2023-01-25T06:29:56;101572.75;;;2.65;78.41
21234;BME280;10774;42.178;26.578;2023-01-25T06:32:21;101578.13;;;2.54;77.76
21234;BME280;10774;42.178;26.578;2023-01-25T06:34:49;101581.50;;;2.82;78.28
21234;BME280;10774;42.178;26.578;2023-01-25T06:37:15;101564.63;;;2.89;78.31
21234;BME280;10774;42.178;26.578;2023-01-25T06:39:40;101570.06;;;2.74;78.23
21234;BME280;10774;42.178;26.578;2023-01-25T06:42:06;101570.81;;;2.92;77.97
21234;BME280;10774;42.178;26.578;2023-01-25T06:44:31;101564.19;;;1.97;80.99
21234;BME280;10774;42.178;26.578;2023-01-25T06:46:56;101581.94;;;1.49;82.25
21234;BME280;10774;42.178;26.578;2023-01-25T06:49:22;101555.47;;;1.40;83.48
21234;BME280;10774;42.178;26.578;2023-01-25T06:51:47;101555.47;;;1.54;83.14
21234;BME280;10774;42.178;26.578;2023-01-25T06:54:13;101555.41;;;1.91;83.03
21234;BME280;10774;42.178;26.578;2023-01-25T06:56:38;101559.78;;;1.95;81.64
21234;BME280;10774;42.178;26.578;2023-01-25T06:59:03;101572.03;;;2.26;81.88
21234;BME280;10774;42.178;26.578;2023-01-25T07:01:29;101554.50;;;1.92;82.81
21234;BME280;10774;42.178;26.578;2023-01-25T07:03:56;101550.94;;;1.99;83.13
21234;BME280;10774;42.178;26.578;2023-01-25T07:06:23;101554.34;;;2.31;82.94
21234;BME280;10774;42.178;26.578;2023-01-25T07:08:49;101556.94;;;2.48;81.54
21234;BME280;10774;42.178;26.578;2023-01-25T07:11:14;101567.50;;;2.53;81.26
21234;BME280;10774;42.178;26.578;2023-01-25T07:13:43;101579.84;;;2.57;82.04
21234;BME280;10774;42.178;26.578;2023-01-25T07:16:19;101578.09;;;2.59;82.46
21234;BME280;10774;42.178;26.578;2023-01-25T07:18:44;101564.75;;;2.68;81.67
21234;BME280;10774;42.178;26.578;2023-01-25T07:21:15;101555.94;;;2.69;81.58
21234;BME280;10774;42.178;26.578;2023-01-25T07:23:41;101558.75;;;2.39;81.03
21234;BME280;10774;42.178;26.578;2023-01-25T07:26:19;101568.63;;;1.78;83.46
21234;BME280;10774;42.178;26.578;2023-01-25T07:28:46;101571.25;;;1.97;84.47
21234;BME280;10774;42.178;26.578;2023-01-25T07:31:12;101568.56;;;2.12;83.61
21234;BME280;10774;42.178;26.578;2023-01-25T07:33:38;101559.72;;;2.19;82.12
21234;BME280;10774;42.178;26.578;2023-01-25T07:36:06;101552.66;;;2.18;81.20
21234;BME280;10774;42.178;26.578;2023-01-25T07:38:32;101543.72;;;2.44;79.84
21234;BME280;10774;42.178;26.578;2023-01-25T07:40:58;101559.47;;;2.68;78.35
21234;BME280;10774;42.178;26.578;2023-01-25T07:43:24;101568.34;;;2.61;77.40
21234;BME280;10774;42.178;26.578;2023-01-25T07:45:50;101559.47;;;2.68;78.04
21234;BME280;10774;42.178;26.578;2023-01-25T07:48:17;101558.53;;;2.74;77.60
21234;BME280;10774;42.178;26.578;2023-01-25T07:50:42;101573.53;;;2.79;76.61
21234;BME280;10774;42.178;26.578;2023-01-25T07:53:14;101572.69;;;2.73;76.63
21234;BME280;10774;42.178;26.578;2023-01-25T07:55:40;101573.56;;;2.73;77.06
21234;BME280;10774;42.178;26.578;2023-01-25T07:58:05;101573.53;;;2.79;77.34
21234;BME280;10774;42.178;26.578;2023-01-25T08:00:31;101579.94;;;2.39;75.48
21234;BME280;10774;42.178;26.578;2023-01-25T08:02:56;101568.50;;;2.33;77.01
21234;BME280;10774;42.178;26.578;2023-01-25T08:05:21;101569.22;;;2.63;77.00
21234;BME280;10774;42.178;26.578;2023-01-25T08:07:47;101573.69;;;2.56;77.10
21234;BME280;10774;42.178;26.578;2023-01-25T08:10:13;101561.44;;;2.32;78.07
21234;BME280;10774;42.178;26.578;2023-01-25T08:12:43;101589.56;;;2.58;77.28
21234;BME280;10774;42.178;26.578;2023-01-25T08:15:10;101584.19;;;2.73;77.39
21234;BME280;10774;42.178;26.578;2023-01-25T08:17:36;101570.38;;;1.98;79.07
21234;BME280;10774;42.178;26.578;2023-01-25T08:20:01;101561.63;;;1.65;79.41
21234;BME280;10774;42.178;26.578;2023-01-25T08:22:27;101598.66;;;1.47;79.03
21234;BME280;10774;42.178;26.578;2023-01-25T08:24:53;101590.75;;;1.35;81.05
21234;BME280;10774;42.178;26.578;2023-01-25T08:27:19;101587.22;;;1.51;81.04
21234;BME280;10774;42.178;26.578;2023-01-25T08:29:45;101572.13;;;1.94;80.63
21234;BME280;10774;42.178;26.578;2023-01-25T08:32:11;101572.03;;;2.32;80.32
21234;BME280;10774;42.178;26.578;2023-01-25T08:34:37;101588.66;;;2.67;78.79
21234;BME280;10774;42.178;26.578;2023-01-25T08:37:04;101577.97;;;2.79;77.72
21234;BME280;10774;42.178;26.578;2023-01-25T08:39:29;101575.47;;;2.50;75.96
21234;BME280;10774;42.178;26.578;2023-01-25T08:41:55;101588.88;;;2.10;75.76
21234;BME280;10774;42.178;26.578;2023-01-25T08:44:20;101579.13;;;2.20;78.24
21234;BME280;10774;42.178;26.578;2023-01-25T08:46:48;101565.09;;;1.82;77.41
21234;BME280;10774;42.178;26.578;2023-01-25T08:49:14;101568.63;;;1.78;77.01
21234;BME280;10774;42.178;26.578;2023-01-25T08:51:39;101560.75;;;1.65;78.58
21234;BME280;10774;42.178;26.578;2023-01-25T08:54:06;101563.34;;;1.78;78.01
21234;BME280;10774;42.178;26.578;2023-01-25T08:56:32;101543.97;;;1.79;78.57
21234;BME280;10774;42.178;26.578;2023-01-25T08:58:57;101567.75;;;1.78;76.79
21234;BME280;10774;42.178;26.578;2023-01-25T09:01:23;101565.97;;;1.84;78.06
21234;BME280;10774;42.178;26.578;2023-01-25T09:03:49;101543.94;;;1.82;77.49
21234;BME280;10774;42.178;26.578;2023-01-25T09:06:16;101561.31;;;2.58;76.33
21234;BME280;10774;42.178;26.578;2023-01-25T09:08:42;101548.34;;;1.85;76.32
21234;BME280;10774;42.178;26.578;2023-01-25T09:11:16;101538.56;;;2.04;75.28
21234;BME280;10774;42.178;26.578;2023-01-25T09:13:42;101554.47;;;2.04;76.31
21234;BME280;10774;42.178;26.578;2023-01-25T09:16:10;101551.66;;;2.42;75.97
21234;BME280;10774;42.178;26.578;2023-01-25T09:18:37;101534.16;;;2.03;76.56
21234;BME280;10774;42.178;26.578;2023-01-25T09:21:08;101525.16;;;2.42;76.19
21234;BME280;10774;42.178;26.578;2023-01-25T09:23:35;101522.56;;;2.31;74.49
21234;BME280;10774;42.178;26.578;2023-01-25T09:26:01;101501.50;;;2.07;77.10
21234;BME280;10774;42.178;26.578;2023-01-25T09:28:28;101520.13;;;1.81;75.75
21234;BME280;10774;42.178;26.578;2023-01-25T09:31:02;101523.69;;;1.51;78.60
21234;BME280;10774;42.178;26.578;2023-01-25T09:33:30;101522.69;;;1.95;79.43
21234;BME280;10774;42.178;26.578;2023-01-25T09:35:56;101520.03;;;2.07;77.82
21234;BME280;10774;42.178;26.578;2023-01-25T09:38:22;101508.63;;;1.79;77.46
21234;BME280;10774;42.178;26.578;2023-01-25T09:49:43;101509.44;;;2.02;77.10
21234;BME280;10774;42.178;26.578;2023-01-25T09:55:15;101475.94;;;1.88;77.93
21234;BME280;10774;42.178;26.578;2023-01-25T09:57:44;101483.00;;;1.89;78.83
21234;BME280;10774;42.178;26.578;2023-01-25T10:02:53;101475.13;;;1.72;78.83
21234;BME280;10774;42.178;26.578;2023-01-25T10:05:27;101476.91;;;1.71;78.60
21234;BME280;10774;42.178;26.578;2023-01-25T10:10:43;101454.63;;;2.23;77.69
21234;BME280;10774;42.178;26.578;2023-01-25T10:13:14;101459.00;;;2.28;77.78
21234;BME280;10774;42.178;26.578;2023-01-25T10:15:51;101448.56;;;1.93;77.29
21234;BME280;10774;42.178;26.578;2023-01-25T10:18:25;101415.06;;;1.88;78.71
21234;BME280;10774;42.178;26.578;2023-01-25T10:20:57;101444.91;;;2.20;79.64
21234;BME280;10774;42.178;26.578;2023-01-25T10:26:27;101430.50;;;2.58;79.27
21234;BME280;10774;42.178;26.578;2023-01-25T10:29:19;101415.69;;;2.34;78.87
21234;BME280;10774;42.178;26.578;2023-01-25T10:31:47;101417.16;;;2.69;79.61
21234;BME280;10774;42.178;26.578;2023-01-25T10:34:29;101424.41;;;2.47;79.17
21234;BME280;10774;42.178;26.578;2023-01-25T10:37:00;101414.09;;;1.99;81.93
21234;BME280;10774;42.178;26.578;2023-01-25T10:39:28;101403.16;;;2.56;80.96
21234;BME280;10774;42.178;26.578;2023-01-25T10:41:58;101396.34;;;2.18;79.50
21234;BME280;10774;42.178;26.578;2023-01-25T10:44:26;101384.31;;;1.61;82.28
21234;BME280;10774;42.178;26.578;2023-01-25T10:46:58;101401.69;;;2.12;83.35
21234;BME280;10774;42.178;26.578;2023-01-25T10:52:22;101383.81;;;2.42;81.12
21234;BME280;10774;42.178;26.578;2023-01-25T10:55:16;101387.25;;;2.53;82.63
21234;BME280;10774;42.178;26.578;2023-01-25T11:03:00;101364.34;;;2.47;83.39
21234;BME280;10774;42.178;26.578;2023-01-25T11:05:34;101367.97;;;2.35;84.83
21234;BME280;10774;42.178;26.578;2023-01-25T11:08:23;101367.38;;;1.95;86.53
21234;BME280;10774;42.178;26.578;2023-01-25T11:10:49;101328.09;;;2.51;85.72
21234;BME280;10774;42.178;26.578;2023-01-25T11:18:27;101351.38;;;3.12;83.29
21234;BME280;10774;42.178;26.578;2023-01-25T11:21:26;101355.91;;;2.99;82.66
21234;BME280;10774;42.178;26.578;2023-01-25T11:26:30;101345.44;;;2.87;82.90
21234;BME280;10774;42.178;26.578;2023-01-25T11:31:30;101361.59;;;2.58;85.25
21234;BME280;10774;42.178;26.578;2023-01-25T11:33:56;101347.88;;;2.04;88.19
21234;BME280;10774;42.178;26.578;2023-01-25T11:36:31;101356.66;;;2.12;89.66
21234;BME280;10774;42.178;26.578;2023-01-25T11:45:15;101336.97;;;2.48;88.95
21234;BME280;10774;42.178;26.578;2023-01-25T11:48:17;101332.44;;;2.58;89.44
21234;BME280;10774;42.178;26.578;2023-01-25T11:51:01;101317.78;;;2.17;89.94
21234;BME280;10774;42.178;26.578;2023-01-25T11:53:38;101329.66;;;2.73;89.59
21234;BME280;10774;42.178;26.578;2023-01-25T11:59:15;101334.94;;;2.73;89.04
21234;BME280;10774;42.178;26.578;2023-01-25T12:10:20;101327.66;;;2.95;86.63
21234;BME280;10774;42.178;26.578;2023-01-25T12:12:50;101318.66;;;2.18;89.02
21234;BME280;10774;42.178;26.578;2023-01-25T12:24:11;101309.56;;;2.48;89.16
21234;BME280;10774;42.178;26.578;2023-01-25T12:29:41;101303.47;;;2.36;89.13
21234;BME280;10774;42.178;26.578;2023-01-25T12:32:22;101290.38;;;2.23;90.57
21234;BME280;10774;42.178;26.578;2023-01-25T12:35:20;101299.19;;;2.20;91.17
21234;BME280;10774;42.178;26.578;2023-01-25T12:37:48;101277.22;;;2.12;91.80
21234;BME280;10774;42.178;26.578;2023-01-25T12:40:20;101300.91;;;2.29;91.49
21234;BME280;10774;42.178;26.578;2023-01-25T12:42:52;101294.69;;;2.31;89.50
21234;BME280;10774;42.178;26.578;2023-01-25T12:45:25;101300.22;;;2.02;91.77
21234;BME280;10774;42.178;26.578;2023-01-25T12:47:55;101308.22;;;1.93;91.88
21234;BME280;10774;42.178;26.578;2023-01-25T12:53:19;101275.16;;;2.42;91.72
21234;BME280;10774;42.178;26.578;2023-01-25T12:55:47;101280.22;;;2.69;89.07
21234;BME280;10774;42.178;26.578;2023-01-25T13:06:26;101257.28;;;2.65;88.69
21234;BME280;10774;42.178;26.578;2023-01-25T13:14:36;101263.47;;;2.62;88.82
21234;BME280;10774;42.178;26.578;2023-01-25T13:17:31;101246.56;;;2.76;88.12
21234;BME280;10774;42.178;26.578;2023-01-25T13:19:57;101241.69;;;2.31;88.73
21234;BME280;10774;42.178;26.578;2023-01-25T13:25:18;101253.44;;;2.00;91.46
21234;BME280;10774;42.178;26.578;2023-01-25T13:27:44;101256.84;;;2.17;92.33
21234;BME280;10774;42.178;26.578;2023-01-25T13:30:31;101245.31;;;2.23;91.74
21234;BME280;10774;42.178;26.578;2023-01-25T13:33:05;101232.28;;;2.01;92.62
21234;BME280;10774;42.178;26.578;2023-01-25T13:41:04;101239.88;;;2.36;89.84
21234;BME280;10774;42.178;26.578;2023-01-25T13:43:34;101238.19;;;2.29;91.17
21234;BME280;10774;42.178;26.578;2023-01-25T13:46:00;101229.53;;;2.12;92.15
21234;BME280;10774;42.178;26.578;2023-01-25T13:48:29;101211.03;;;2.07;92.79
21234;BME280;10774;42.178;26.578;2023-01-25T13:51:08;101224.78;;;2.45;91.24
21234;BME280;10774;42.178;26.578;2023-01-25T13:53:38;101213.22;;;2.55;90.31
21234;BME280;10774;42.178;26.578;2023-01-25T13:56:04;101214.78;;;2.71;90.57
21234;BME280;10774;42.178;26.578;2023-01-25T13:58:34;101201.31;;;2.89;89.72
21234;BME280;10774;42.178;26.578;2023-01-25T14:01:19;101188.88;;;2.95;88.83
21234;BME280;10774;42.178;26.578;2023-01-25T14:03:56;101195.63;;;2.46;89.43
21234;BME280;10774;42.178;26.578;2023-01-25T14:06:29;101221.81;;;2.77;90.25
21234;BME280;10774;42.178;26.578;2023-01-25T14:08:59;101227.84;;;2.88;89.88
21234;BME280;10774;42.178;26.578;2023-01-25T14:11:28;101217.28;;;2.86;89.74
21234;BME280;10774;42.178;26.578;2023-01-25T14:16:29;101208.16;;;2.30;91.06
21234;BME280;10774;42.178;26.578;2023-01-25T14:18:57;101204.94;;;1.98;92.81
21234;BME280;10774;42.178;26.578;2023-01-25T14:21:42;101204.56;;;2.36;93.48
21234;BME280;10774;42.178;26.578;2023-01-25T14:24:08;101198.91;;;2.68;92.42
21234;BME280;10774;42.178;26.578;2023-01-25T14:26:37;101194.00;;;2.31;93.49
21234;BME280;10774;42.178;26.578;2023-01-25T14:29:16;101206.91;;;2.63;92.98
21234;BME280;10774;42.178;26.578;2023-01-25T14:31:42;101202.69;;;2.47;93.24
21234;BME280;10774;42.178;26.578;2023-01-25T14:34:18;101215.53;;;2.85;92.35
21234;BME280;10774;42.178;26.578;2023-01-25T14:36:45;101207.91;;;2.55;92.40
21234;BME280;10774;42.178;26.578;2023-01-25T14:39:28;101221.78;;;2.80;92.76
21234;BME280;10774;42.178;26.578;2023-01-25T14:41:54;101212.38;;;2.50;92.66
21234;BME280;10774;42.178;26.578;2023-01-25T14:44:21;101209.06;;;2.28;95.33